Aviation Digital Data Service (ADDS)

Output produced by METARs form (1159 UTC 17 December 2017)
found at http://aviationweather.gov/adds/metars/
 
KARA 171140Z 1712/1812 25012KT P6SM -RA FEW006 SCT014 OVC025 
     TEMPO 1712/1713 4SM -RA BR SCT006 OVC014 
     FM171300 34010KT P6SM VCSH OVC017 
     FM171800 VRB03KT P6SM SCT026 OVC035 
     FM180300 VRB05KT P6SM -SHRA SCT029 OVC040 
     TEMPO 1805/1809 5SM TSRA SCT024 BKN030CB